Oria, Spain
Current Conditions -  °F | °C
As of 6:00 PM on Friday 28 Nov 2014 (Local Time) from LESO Reporting Station
Clear Clear  
Wind Chill: 66°   Ceiling: Unl
Heat Index: 66°   Visibility: 6mi
Dew Point: 46°   Wind: 6mph
Humidity: 49%   Direction: NA
Pressure: 29.23"   Gusts: 25mph
Location:  43.26°N, 2.02°W
Report Text: LESO 281700Z VRB05G22KT CAVOK 19/08 Q0990
Loading
Personal Weather Stations






























Interactive Weather Map New forecast layout! Learn more

10-Day Weather Forecast

Advertisements
Track Severe Weather on mobile